createdAt,value
2023-01-11T00:01:04.191Z,17.46
2023-01-11T00:03:31.736Z,17.58
2023-01-11T00:06:00.191Z,17.21
2023-01-11T00:08:27.856Z,16.95
2023-01-11T00:10:55.275Z,16.74
2023-01-11T00:13:22.679Z,16.99
2023-01-11T00:15:49.455Z,17.11
2023-01-11T00:18:16.278Z,16.68
2023-01-11T00:20:42.954Z,16.60
2023-01-11T00:23:11.449Z,16.43
2023-01-11T00:25:38.729Z,16.00
2023-01-11T00:28:05.939Z,16.40
2023-01-11T00:30:33.178Z,16.22
2023-01-11T00:33:00.530Z,16.45
2023-01-11T00:35:27.947Z,16.59
2023-01-11T00:37:54.660Z,16.80
2023-01-11T00:40:22.751Z,16.81
2023-01-11T00:42:49.395Z,16.58
2023-01-11T00:45:16.243Z,16.69
2023-01-11T00:47:43.021Z,16.77
2023-01-11T00:50:10.850Z,16.47
2023-01-11T00:52:37.652Z,15.89
2023-01-11T00:55:05.296Z,16.01
2023-01-11T00:57:33.361Z,16.32
2023-01-11T01:00:00.165Z,16.14
2023-01-11T01:02:26.949Z,15.96
2023-01-11T01:04:53.604Z,16.26
2023-01-11T01:07:20.289Z,15.80
2023-01-11T01:09:46.980Z,15.93
2023-01-11T01:12:13.713Z,15.65
2023-01-11T01:14:42.060Z,15.46
2023-01-11T01:17:09.122Z,15.95
2023-01-11T01:19:38.145Z,15.65
2023-01-11T01:22:04.837Z,15.96
2023-01-11T01:24:31.556Z,15.97
2023-01-11T01:26:58.701Z,16.09
2023-01-11T01:29:26.116Z,16.11
2023-01-11T01:31:54.456Z,15.85
2023-01-11T01:34:21.147Z,16.10
2023-01-11T01:36:47.819Z,15.86
2023-01-11T01:39:14.539Z,16.08
2023-01-11T01:41:41.444Z,15.77
2023-01-11T01:44:41.324Z,15.73
2023-01-11T01:47:09.903Z,16.08
2023-01-11T01:49:37.193Z,15.72
2023-01-11T01:52:04.142Z,16.06
2023-01-11T01:54:36.585Z,16.03
2023-01-11T01:57:09.348Z,16.12
2023-01-11T01:59:36.295Z,15.97
2023-01-11T02:02:03.199Z,16.20
2023-01-11T02:04:34.531Z,16.03
2023-01-11T02:07:04.492Z,16.27
2023-01-11T02:09:38.839Z,15.96
2023-01-11T02:12:07.620Z,16.21
2023-01-11T02:14:36.796Z,16.22
2023-01-11T02:17:03.803Z,16.23
2023-01-11T02:19:44.712Z,15.99
2023-01-11T02:22:43.932Z,15.87
2023-01-11T02:25:52.781Z,15.80
2023-01-11T02:28:27.677Z,15.73
2023-01-11T02:31:03.217Z,15.82
2023-01-11T02:33:40.004Z,15.60
2023-01-11T02:36:17.184Z,15.94
2023-01-11T02:38:51.528Z,15.96
2023-01-11T02:41:25.907Z,16.04
2023-01-11T02:44:00.796Z,15.83
2023-01-11T02:46:32.600Z,15.70
2023-01-11T02:49:08.518Z,15.82
2023-01-11T02:51:41.873Z,15.71
2023-01-11T02:54:11.077Z,15.79
2023-01-11T02:56:41.071Z,15.82
2023-01-11T02:59:12.551Z,15.90
2023-01-11T03:01:45.953Z,15.91
2023-01-11T03:04:26.891Z,15.64
2023-01-11T03:07:06.958Z,15.60
2023-01-11T03:09:43.060Z,15.59
2023-01-11T03:12:28.174Z,15.70
2023-01-11T03:15:11.952Z,15.56
2023-01-11T03:17:53.325Z,15.37
2023-01-11T03:20:24.443Z,15.47
2023-01-11T03:23:06.875Z,15.75
2023-01-11T03:25:46.955Z,15.79
2023-01-11T03:28:22.125Z,15.56
2023-01-11T03:30:59.692Z,15.60
2023-01-11T03:33:36.194Z,15.89
2023-01-11T03:36:13.506Z,15.88
2023-01-11T03:38:46.063Z,15.76
2023-01-11T03:41:18.974Z,15.74
2023-01-11T03:43:49.740Z,15.75
2023-01-11T03:46:22.292Z,15.70
2023-01-11T03:48:53.899Z,15.70
2023-01-11T03:51:24.776Z,15.64
2023-01-11T03:53:52.828Z,15.72
2023-01-11T03:56:24.531Z,15.80
2023-01-11T03:58:51.254Z,15.67
2023-01-11T04:01:19.638Z,15.67
2023-01-11T04:03:46.420Z,15.73
2023-01-11T04:06:13.336Z,15.28
2023-01-11T04:08:40.014Z,15.55
2023-01-11T04:11:06.697Z,15.53
2023-01-11T04:13:33.390Z,15.19
2023-01-11T04:16:00.168Z,15.51
2023-01-11T04:18:28.347Z,15.30
2023-01-11T04:20:55.121Z,15.20
2023-01-11T04:23:21.877Z,15.46
2023-01-11T04:25:48.684Z,15.60
2023-01-11T04:28:15.406Z,14.96
2023-01-11T04:30:42.127Z,15.52
2023-01-11T04:33:08.788Z,15.59
2023-01-11T04:35:36.926Z,15.17
2023-01-11T04:38:03.606Z,15.12
2023-01-11T04:40:30.299Z,14.88
2023-01-11T04:42:57.028Z,15.08
2023-01-11T04:45:23.753Z,15.17
2023-01-11T04:47:54.091Z,15.10
2023-01-11T04:50:21.015Z,15.18
2023-01-11T04:52:49.135Z,15.01
2023-01-11T04:55:15.994Z,15.46
2023-01-11T04:57:43.659Z,15.47
2023-01-11T05:00:11.954Z,15.33
2023-01-11T05:02:38.768Z,15.23
2023-01-11T05:05:06.885Z,15.22
2023-01-11T05:07:33.975Z,15.41
2023-01-11T05:10:02.093Z,15.28
2023-01-11T05:12:28.863Z,15.44
2023-01-11T05:14:55.577Z,15.18
2023-01-11T05:17:22.265Z,15.21
2023-01-11T05:19:49.032Z,15.06
2023-01-11T05:22:15.736Z,15.21
2023-01-11T05:24:42.666Z,14.86
2023-01-11T05:27:10.777Z,14.98
2023-01-11T05:29:37.441Z,14.73
2023-01-11T05:32:04.457Z,14.92
2023-01-11T05:34:31.124Z,14.71
2023-01-11T05:36:57.972Z,14.85
2023-01-11T05:39:24.760Z,15.07
2023-01-11T05:41:51.429Z,15.08
2023-01-11T05:44:19.542Z,14.61
2023-01-11T05:46:46.499Z,14.50
2023-01-11T05:49:14.285Z,14.59
2023-01-11T05:51:41.938Z,14.51
2023-01-11T05:54:11.384Z,15.02
2023-01-11T05:56:38.458Z,14.91
2023-01-11T05:59:05.143Z,14.90
2023-01-11T06:01:33.412Z,14.78
2023-01-11T06:04:00.206Z,15.09
2023-01-11T06:06:27.256Z,15.23
2023-01-11T06:08:54.306Z,15.11
2023-01-11T06:11:21.009Z,15.43
2023-01-11T06:13:47.694Z,15.03
2023-01-11T06:16:16.535Z,14.87
2023-01-11T06:18:46.822Z,14.94
2023-01-11T06:21:15.019Z,14.85
2023-01-11T06:23:43.440Z,14.76
2023-01-11T06:26:12.378Z,14.85
2023-01-11T06:28:39.721Z,15.09
2023-01-11T06:31:07.227Z,15.41
2023-01-11T06:33:35.246Z,15.30
2023-01-11T06:36:05.755Z,15.52
2023-01-11T06:38:32.788Z,15.20
2023-01-11T06:41:00.983Z,15.05
2023-01-11T06:43:29.004Z,15.04
2023-01-11T06:45:56.104Z,15.02
2023-01-11T06:48:23.477Z,15.20
2023-01-11T06:50:51.722Z,15.19
2023-01-11T06:53:20.665Z,15.15
2023-01-11T06:55:50.148Z,15.29
2023-01-11T06:58:16.852Z,15.26
2023-01-11T07:00:43.562Z,15.15
2023-01-11T07:03:11.459Z,14.86
2023-01-11T07:05:38.488Z,14.93
2023-01-11T07:08:05.674Z,15.38
2023-01-11T07:10:33.873Z,15.48
2023-01-11T07:13:00.627Z,15.24
2023-01-11T07:15:28.503Z,15.41
2023-01-11T07:17:56.043Z,15.36
2023-01-11T07:20:23.580Z,15.29
2023-01-11T07:22:50.254Z,15.08
2023-01-11T07:25:17.349Z,15.09
2023-01-11T07:27:45.492Z,15.04
2023-01-11T07:30:12.978Z,15.25
2023-01-11T07:32:39.777Z,15.19
2023-01-11T07:35:07.495Z,14.85
2023-01-11T07:37:37.553Z,15.05
2023-01-11T07:40:05.537Z,15.24
2023-01-11T07:42:32.216Z,15.30
2023-01-11T07:45:00.279Z,15.29
2023-01-11T07:47:27.099Z,15.29
2023-01-11T07:49:53.795Z,15.50
2023-01-11T07:52:20.507Z,15.33
2023-01-11T07:54:47.189Z,15.47
2023-01-11T07:57:13.840Z,15.64
2023-01-11T07:59:40.510Z,15.37
2023-01-11T08:02:10.625Z,15.57
2023-01-11T08:04:37.326Z,15.39
2023-01-11T08:07:04.030Z,15.36
2023-01-11T08:09:30.877Z,15.46
2023-01-11T08:11:57.564Z,15.54
2023-01-11T08:14:24.227Z,15.59
2023-01-11T08:16:51.004Z,15.43
2023-01-11T08:19:19.236Z,15.45
2023-01-11T08:21:45.872Z,15.52
2023-01-11T08:24:12.548Z,15.35
2023-01-11T08:26:39.225Z,15.43
2023-01-11T08:29:05.965Z,15.45
2023-01-11T08:31:32.730Z,15.53
2023-01-11T08:33:59.551Z,15.57
2023-01-11T08:36:27.614Z,15.52
2023-01-11T08:38:55.310Z,15.53
2023-01-11T08:41:22.028Z,15.55
2023-01-11T08:43:48.722Z,15.40
2023-01-11T08:46:16.937Z,15.56
2023-01-11T08:48:44.144Z,15.71
2023-01-11T08:51:10.835Z,15.77
2023-01-11T08:53:38.906Z,15.84
2023-01-11T08:56:06.199Z,15.82
2023-01-11T08:58:32.900Z,15.80
2023-01-11T09:01:00.396Z,15.99
2023-01-11T09:03:27.137Z,16.00
2023-01-11T09:05:53.864Z,16.03
2023-01-11T09:08:20.885Z,16.03
2023-01-11T09:10:49.038Z,16.31
2023-01-11T09:13:15.730Z,16.32
2023-01-11T09:15:42.691Z,16.45
2023-01-11T09:18:09.414Z,16.46
2023-01-11T09:20:36.089Z,16.63
2023-01-11T09:23:02.791Z,16.59
2023-01-11T09:25:29.446Z,16.38
2023-01-11T09:27:57.493Z,16.34
2023-01-11T09:30:24.702Z,16.29
2023-01-11T09:32:52.468Z,16.12
2023-01-11T09:35:19.161Z,16.06
2023-01-11T09:37:48.697Z,16.12
2023-01-11T09:40:19.088Z,15.94
2023-01-11T09:42:49.143Z,15.91
2023-01-11T09:45:19.096Z,15.85
2023-01-11T09:47:50.753Z,16.01
2023-01-11T09:50:21.274Z,16.28
2023-01-11T09:52:51.305Z,16.48
2023-01-11T09:55:22.421Z,16.60
2023-01-11T09:58:06.639Z,16.70
2023-01-11T10:00:49.204Z,16.70
2023-01-11T10:03:39.575Z,16.68
2023-01-11T10:06:15.273Z,16.26
2023-01-11T10:18:35.337Z,15.58
2023-01-11T10:18:48.901Z,15.06
2023-01-11T10:21:11.882Z,15.19
2023-01-11T10:23:47.460Z,15.11
2023-01-11T10:26:24.029Z,14.91
2023-01-11T10:28:58.727Z,15.50
2023-01-11T10:31:25.536Z,15.56
2023-01-11T10:33:58.533Z,15.55
2023-01-11T10:36:30.867Z,15.56
2023-01-11T10:39:03.485Z,15.06
2023-01-11T10:41:39.132Z,15.14
2023-01-11T10:44:14.927Z,15.33
2023-01-11T10:46:45.113Z,15.48
2023-01-11T10:49:33.754Z,15.27
2023-01-11T10:52:15.893Z,15.15
2023-01-11T10:54:46.133Z,15.40
2023-01-11T10:57:20.896Z,15.60
2023-01-11T11:00:12.410Z,15.99
2023-01-11T11:03:29.128Z,16.41
2023-01-11T11:06:04.844Z,16.33
2023-01-11T11:08:39.703Z,16.45
2023-01-11T11:11:13.065Z,16.57
2023-01-11T11:13:48.009Z,16.39
2023-01-11T11:16:28.764Z,16.13
2023-01-11T11:18:58.548Z,16.27
2023-01-11T11:21:30.334Z,16.49
2023-01-11T11:24:02.155Z,16.67
2023-01-11T11:26:35.680Z,16.65
2023-01-11T11:29:05.238Z,17.02
2023-01-11T11:31:34.888Z,17.30
2023-01-11T11:34:05.652Z,17.00
2023-01-11T11:36:42.566Z,16.98
2023-01-11T11:39:11.904Z,17.06
2023-01-11T11:41:47.435Z,16.61
2023-01-11T11:44:20.018Z,16.84
2023-01-11T11:47:00.753Z,16.64
2023-01-11T11:49:28.817Z,17.28
2023-01-11T11:51:59.672Z,17.17
2023-01-11T11:54:29.549Z,17.08
2023-01-11T11:56:58.834Z,16.82
2023-01-11T11:59:29.744Z,16.90
2023-01-11T12:02:00.529Z,17.08
2023-01-11T12:04:39.981Z,16.63
2023-01-11T12:07:13.892Z,16.99
2023-01-11T12:09:46.233Z,17.11
2023-01-11T12:12:21.183Z,17.30
2023-01-11T12:15:18.458Z,17.10
2023-01-11T12:17:45.524Z,16.92
2023-01-11T12:20:31.177Z,16.67
2023-01-11T12:23:20.320Z,17.03
2023-01-11T12:26:18.008Z,17.08
2023-01-11T12:29:05.864Z,17.02
2023-01-11T12:31:47.266Z,17.00
2023-01-11T12:34:31.246Z,17.16
2023-01-11T12:37:04.912Z,17.22
2023-01-11T12:39:43.079Z,17.08
2023-01-11T12:42:34.262Z,17.02
2023-01-11T12:45:15.722Z,16.49
2023-01-11T12:48:12.477Z,17.06
2023-01-11T12:50:54.784Z,17.25
2023-01-11T12:53:34.472Z,16.92
2023-01-11T12:56:22.166Z,17.17
2023-01-11T12:58:56.297Z,16.80
2023-01-11T13:01:48.259Z,16.06
2023-01-11T13:04:44.025Z,16.38
2023-01-11T13:07:22.744Z,16.79
2023-01-11T13:10:08.843Z,16.13
2023-01-11T13:12:42.790Z,16.31
2023-01-11T13:15:25.837Z,15.95
2023-01-11T13:17:59.628Z,15.71
2023-01-11T13:20:53.467Z,15.64
2023-01-11T13:23:33.114Z,16.03
2023-01-11T13:26:05.538Z,15.72
2023-01-11T13:28:38.008Z,16.10
2023-01-11T13:31:09.692Z,16.16
2023-01-11T13:33:41.604Z,16.66
2023-01-11T13:36:22.907Z,16.52
2023-01-11T13:38:57.905Z,16.23
2023-01-11T13:41:30.484Z,16.14
2023-01-11T13:44:05.111Z,15.93
2023-01-11T13:46:51.757Z,15.93
2023-01-11T13:49:36.873Z,16.26
2023-01-11T13:52:11.664Z,16.37
2023-01-11T13:54:45.773Z,16.19
2023-01-11T13:57:21.914Z,16.02
2023-01-11T13:59:55.099Z,16.03
2023-01-11T14:02:27.648Z,16.45
2023-01-11T14:04:59.970Z,16.12
2023-01-11T14:07:40.966Z,16.67
2023-01-11T14:10:35.412Z,16.25
2023-01-11T14:13:20.386Z,16.39
2023-01-11T14:15:58.354Z,16.22
2023-01-11T14:18:34.474Z,16.38
2023-01-11T14:21:09.071Z,16.58
2023-01-11T14:23:45.982Z,16.91
2023-01-11T14:26:52.153Z,16.79
2023-01-11T14:29:46.407Z,16.84
2023-01-11T14:32:42.937Z,16.58
2023-01-11T14:35:42.105Z,16.89
2023-01-11T14:38:46.032Z,17.64
2023-01-11T14:41:36.290Z,17.15
2023-01-11T14:44:19.809Z,16.99
2023-01-11T14:47:13.355Z,17.06
2023-01-11T14:49:57.041Z,16.89
2023-01-11T14:52:39.751Z,16.29
2023-01-11T14:55:16.750Z,16.36
2023-01-11T14:57:59.138Z,16.40
2023-01-11T15:01:04.715Z,16.61
2023-01-11T15:03:54.745Z,16.48
2023-01-11T15:06:23.521Z,15.67
2023-01-11T15:08:53.485Z,15.35
2023-01-11T15:11:24.803Z,15.63
2023-01-11T15:13:56.321Z,15.93
2023-01-11T15:16:26.491Z,15.63
2023-01-11T15:18:53.822Z,15.95
2023-01-11T15:21:25.771Z,15.67
2023-01-11T15:23:55.353Z,15.59
2023-01-11T15:26:24.092Z,15.54
2023-01-11T15:28:53.223Z,15.25
2023-01-11T15:31:34.361Z,15.61
2023-01-11T15:34:04.980Z,15.49
2023-01-11T15:37:06.580Z,15.39
2023-01-11T15:39:40.261Z,14.41
2023-01-11T15:42:44.019Z,13.75
2023-01-11T15:45:41.901Z,13.50
2023-01-11T15:48:24.824Z,13.52
2023-01-11T15:51:10.647Z,13.93
2023-01-11T15:54:18.557Z,14.65
2023-01-11T15:57:08.742Z,14.66
2023-01-11T15:59:58.294Z,14.41
2023-01-11T16:02:59.476Z,14.46
2023-01-11T16:05:29.402Z,14.71
2023-01-11T16:08:05.667Z,14.40
2023-01-11T16:11:00.591Z,14.40
2023-01-11T16:13:39.564Z,14.76
2023-01-11T16:16:16.712Z,14.78
2023-01-11T16:18:46.057Z,14.98
2023-01-11T16:21:17.908Z,14.77
2023-01-11T16:23:45.199Z,15.05
2023-01-11T16:26:18.033Z,15.17
2023-01-11T16:28:50.852Z,15.02
2023-01-11T16:31:17.845Z,15.15
2023-01-11T16:33:44.722Z,15.24
2023-01-11T16:36:13.552Z,14.90
2023-01-11T16:38:47.294Z,15.32
2023-01-11T16:41:16.653Z,15.54
2023-01-11T16:43:50.139Z,15.67
2023-01-11T16:46:52.762Z,15.54
2023-01-11T16:49:19.645Z,15.22
2023-01-11T16:51:48.057Z,15.55
2023-01-11T16:54:22.863Z,15.57
2023-01-11T16:56:51.194Z,15.90
2023-01-11T16:59:22.645Z,15.87
2023-01-11T17:01:51.192Z,15.88
2023-01-11T17:04:29.781Z,15.98
2023-01-11T17:06:57.310Z,15.80
2023-01-11T17:09:24.315Z,15.83
2023-01-11T17:11:53.078Z,15.48
2023-01-11T17:14:46.100Z,15.45
2023-01-11T17:17:13.716Z,15.66
2023-01-11T17:19:45.869Z,15.89
2023-01-11T17:22:18.838Z,15.81
2023-01-11T17:24:51.392Z,15.93
2023-01-11T17:27:22.623Z,15.92
2023-01-11T17:29:51.595Z,15.72
2023-01-11T17:32:22.998Z,15.71
2023-01-11T17:34:51.010Z,15.67
2023-01-11T17:37:19.080Z,15.65
2023-01-11T17:39:49.325Z,15.53
2023-01-11T17:42:17.117Z,15.45
2023-01-11T17:44:46.628Z,15.27
2023-01-11T17:47:13.564Z,15.50
2023-01-11T17:49:40.326Z,15.57
2023-01-11T17:52:16.867Z,15.51
2023-01-11T17:54:43.563Z,15.55
2023-01-11T17:57:10.734Z,15.69
2023-01-11T17:59:37.715Z,15.70
2023-01-11T18:02:12.223Z,15.73
2023-01-11T18:04:39.455Z,15.66
2023-01-11T18:07:08.763Z,15.58
2023-01-11T18:09:43.574Z,15.59
2023-01-11T18:12:14.772Z,15.53
2023-01-11T18:14:48.586Z,15.57
2023-01-11T18:17:34.123Z,15.92
2023-01-11T18:20:02.445Z,15.82
2023-01-11T18:22:30.471Z,15.95
2023-01-11T18:24:58.120Z,15.91
2023-01-11T18:27:28.406Z,15.87
2023-01-11T18:29:56.929Z,15.87
2023-01-11T18:32:24.767Z,15.82
2023-01-11T18:34:54.393Z,15.89
2023-01-11T18:37:21.488Z,15.75
2023-01-11T18:39:50.538Z,15.82
2023-01-11T18:42:20.059Z,15.91
2023-01-11T18:44:47.792Z,16.07
2023-01-11T18:47:16.982Z,16.14
2023-01-11T18:49:43.809Z,16.18
2023-01-11T18:52:12.396Z,16.25
2023-01-11T18:54:39.359Z,16.30
2023-01-11T18:57:06.191Z,16.34
2023-01-11T18:59:33.309Z,16.07
2023-01-11T19:02:17.140Z,16.21
2023-01-11T19:04:44.848Z,16.24
2023-01-11T19:07:13.958Z,16.35
2023-01-11T19:09:40.814Z,16.45
2023-01-11T19:12:08.119Z,16.46
2023-01-11T19:14:34.806Z,16.44
2023-01-11T19:17:01.472Z,16.52
2023-01-11T19:19:28.152Z,16.49
2023-01-11T19:21:54.840Z,16.56
2023-01-11T19:24:23.006Z,16.45
2023-01-11T19:26:49.986Z,16.62
2023-01-11T19:29:17.038Z,16.23
2023-01-11T19:31:43.903Z,16.39
2023-01-11T19:34:10.620Z,16.37
2023-01-11T19:36:37.437Z,16.56
2023-01-11T19:39:04.539Z,16.66
2023-01-11T19:41:32.662Z,16.71
2023-01-11T19:43:59.437Z,16.50
2023-01-11T19:46:32.054Z,16.27
2023-01-11T19:48:59.105Z,16.23
2023-01-11T19:51:25.867Z,16.45
2023-01-11T19:53:52.574Z,16.31
2023-01-11T19:56:19.221Z,16.18
2023-01-11T19:58:47.372Z,16.41
2023-01-11T20:01:14.119Z,16.34
2023-01-11T20:03:40.823Z,16.28
2023-01-11T20:06:07.955Z,16.25
2023-01-11T20:08:35.490Z,16.10
2023-01-11T20:11:05.463Z,15.83
2023-01-11T20:13:32.268Z,15.84
2023-01-11T20:16:04.455Z,15.75
2023-01-11T20:18:31.153Z,15.76
2023-01-11T20:20:57.874Z,15.80
2023-01-11T20:23:24.964Z,15.94
2023-01-11T20:25:58.074Z,15.92
2023-01-11T20:28:24.792Z,16.01
2023-01-11T20:30:51.550Z,15.91
2023-01-11T20:33:19.796Z,15.83
2023-01-11T20:35:46.450Z,15.85
2023-01-11T20:38:13.223Z,15.74
2023-01-11T20:40:40.134Z,15.80
2023-01-11T20:43:07.220Z,15.77
2023-01-11T20:45:33.891Z,15.85
2023-01-11T20:48:00.818Z,15.81
2023-01-11T20:50:28.848Z,15.79
2023-01-11T20:52:55.492Z,15.83
2023-01-11T20:55:22.176Z,15.89
2023-01-11T20:57:48.888Z,15.83
2023-01-11T21:00:16.369Z,15.79
2023-01-11T21:02:43.144Z,15.82
2023-01-11T21:05:10.222Z,15.90
2023-01-11T21:07:38.272Z,16.05
2023-01-11T21:10:05.877Z,16.12
2023-01-11T21:12:32.614Z,16.04
2023-01-11T21:14:59.556Z,16.12
2023-01-11T21:17:26.308Z,16.07
2023-01-11T21:19:53.013Z,16.04
2023-01-11T21:22:19.702Z,16.19
2023-01-11T21:24:47.756Z,16.05
2023-01-11T21:27:14.482Z,16.05
2023-01-11T21:29:41.180Z,16.04
2023-01-11T21:32:07.972Z,16.21
2023-01-11T21:34:34.645Z,16.11
2023-01-11T21:37:01.320Z,16.17
2023-01-11T21:39:28.071Z,15.94
2023-01-11T21:41:56.241Z,16.08
2023-01-11T21:44:27.210Z,16.17
2023-01-11T21:46:54.542Z,16.28
2023-01-11T21:49:21.439Z,16.15
2023-01-11T21:51:48.239Z,16.04
2023-01-11T21:54:16.306Z,16.24
2023-01-11T21:56:42.929Z,16.30
2023-01-11T21:59:11.130Z,16.10
2023-01-11T22:01:39.185Z,16.14
2023-01-11T22:04:06.712Z,16.24
2023-01-11T22:06:35.474Z,16.24
2023-01-11T22:09:02.434Z,16.31
2023-01-11T22:11:29.122Z,16.22
2023-01-11T22:13:55.765Z,16.30
2023-01-11T22:16:23.957Z,16.32
2023-01-11T22:18:50.733Z,16.55
2023-01-11T22:21:19.048Z,16.38
2023-01-11T22:23:47.180Z,16.38
2023-01-11T22:26:15.576Z,16.09
2023-01-11T22:28:43.439Z,16.17
2023-01-11T22:31:10.189Z,16.52
2023-01-11T22:33:38.284Z,16.47
2023-01-11T22:36:05.472Z,16.58
2023-01-11T22:38:32.733Z,16.50
2023-01-11T22:40:59.736Z,16.49
2023-01-11T22:43:26.407Z,16.43
2023-01-11T22:45:57.439Z,16.70
2023-01-11T22:48:24.179Z,16.44
2023-01-11T22:50:52.667Z,16.49
2023-01-11T22:53:19.737Z,16.40
2023-01-11T22:55:46.823Z,16.43
2023-01-11T22:58:13.671Z,16.25
2023-01-11T23:00:40.446Z,16.48
2023-01-11T23:03:07.301Z,16.72
2023-01-11T23:05:34.089Z,16.76
2023-01-11T23:08:02.211Z,16.74
2023-01-11T23:10:28.855Z,16.90
2023-01-11T23:12:55.545Z,16.84
2023-01-11T23:15:22.346Z,16.90
2023-01-11T23:17:49.075Z,16.89
2023-01-11T23:20:16.325Z,16.91
2023-01-11T23:22:43.051Z,16.61
2023-01-11T23:25:11.492Z,16.81
2023-01-11T23:27:38.305Z,16.84
2023-01-11T23:30:06.275Z,16.83
2023-01-11T23:32:33.569Z,16.69
2023-01-11T23:35:00.463Z,16.57
2023-01-11T23:37:27.284Z,16.50
2023-01-11T23:39:54.058Z,16.57
2023-01-11T23:42:22.160Z,16.59
2023-01-11T23:44:48.840Z,16.50
2023-01-11T23:47:15.545Z,16.53
2023-01-11T23:49:42.246Z,16.41
2023-01-11T23:52:09.033Z,16.20
2023-01-11T23:54:35.728Z,16.37
2023-01-11T23:57:04.044Z,16.67
2023-01-11T23:59:32.530Z,16.79
